sensor_id;sensor_type;location;lat;lon;timestamp;temperature;humidity
21425;DHT22;10873;51.132;16.848;2023-04-05T00:01:32;23.80;40.20
21425;DHT22;10873;51.132;16.848;2023-04-05T00:03:59;23.80;40.10
21425;DHT22;10873;51.132;16.848;2023-04-05T00:06:28;23.80;40.10
21425;DHT22;10873;51.132;16.848;2023-04-05T00:08:58;23.80;40.10
21425;DHT22;10873;51.132;16.848;2023-04-05T00:11:24;23.80;40.10
21425;DHT22;10873;51.132;16.848;2023-04-05T00:13:51;23.80;40.00
21425;DHT22;10873;51.132;16.848;2023-04-05T00:16:18;23.80;40.00
21425;DHT22;10873;51.132;16.848;2023-04-05T00:18:45;23.80;40.10
21425;DHT22;10873;51.132;16.848;2023-04-05T00:21:16;23.80;40.20
21425;DHT22;10873;51.132;16.848;2023-04-05T00:23:42;23.70;40.20
21425;DHT22;10873;51.132;16.848;2023-04-05T00:26:11;23.70;40.20
21425;DHT22;10873;51.132;16.848;2023-04-05T00:28:37;23.70;40.30
21425;DHT22;10873;51.132;16.848;2023-04-05T00:31:03;23.70;40.20
21425;DHT22;10873;51.132;16.848;2023-04-05T00:33:30;23.70;40.20
21425;DHT22;10873;51.132;16.848;2023-04-05T00:35:56;23.70;40.20
21425;DHT22;10873;51.132;16.848;2023-04-05T00:38:22;23.70;40.20
21425;DHT22;10873;51.132;16.848;2023-04-05T00:40:48;23.70;40.20
21425;DHT22;10873;51.132;16.848;2023-04-05T00:43:15;23.70;40.20
21425;DHT22;10873;51.132;16.848;2023-04-05T00:45:41;23.70;40.20
21425;DHT22;10873;51.132;16.848;2023-04-05T00:48:07;23.70;40.30
21425;DHT22;10873;51.132;16.848;2023-04-05T00:50:34;23.70;40.30
21425;DHT22;10873;51.132;16.848;2023-04-05T00:53:00;23.70;40.30
21425;DHT22;10873;51.132;16.848;2023-04-05T00:55:27;23.70;40.30
21425;DHT22;10873;51.132;16.848;2023-04-05T00:57:53;23.70;40.20
21425;DHT22;10873;51.132;16.848;2023-04-05T01:00:21;23.70;40.10
21425;DHT22;10873;51.132;16.848;2023-04-05T01:02:50;23.70;40.10
21425;DHT22;10873;51.132;16.848;2023-04-05T01:05:30;23.70;40.10
21425;DHT22;10873;51.132;16.848;2023-04-05T01:08:03;23.80;40.10
21425;DHT22;10873;51.132;16.848;2023-04-05T01:10:35;23.70;40.00
21425;DHT22;10873;51.132;16.848;2023-04-05T01:13:04;23.70;40.00
21425;DHT22;10873;51.132;16.848;2023-04-05T01:15:31;23.70;40.10
21425;DHT22;10873;51.132;16.848;2023-04-05T01:17:58;23.70;40.10
21425;DHT22;10873;51.132;16.848;2023-04-05T01:20:30;23.70;40.10
21425;DHT22;10873;51.132;16.848;2023-04-05T01:23:27;23.70;40.10
21425;DHT22;10873;51.132;16.848;2023-04-05T01:29:48;23.70;40.00
21425;DHT22;10873;51.132;16.848;2023-04-05T01:32:23;23.70;40.00
21425;DHT22;10873;51.132;16.848;2023-04-05T01:34:52;23.70;39.90
21425;DHT22;10873;51.132;16.848;2023-04-05T01:37:21;23.70;39.90
21425;DHT22;10873;51.132;16.848;2023-04-05T01:39:50;23.70;39.90
21425;DHT22;10873;51.132;16.848;2023-04-05T01:42:21;23.70;39.90
21425;DHT22;10873;51.132;16.848;2023-04-05T01:44:52;23.70;39.90
21425;DHT22;10873;51.132;16.848;2023-04-05T01:47:18;23.70;40.00
21425;DHT22;10873;51.132;16.848;2023-04-05T01:49:46;23.70;40.00
21425;DHT22;10873;51.132;16.848;2023-04-05T01:52:12;23.70;40.00
21425;DHT22;10873;51.132;16.848;2023-04-05T01:54:38;23.70;39.90
21425;DHT22;10873;51.132;16.848;2023-04-05T01:57:04;23.70;39.90
21425;DHT22;10873;51.132;16.848;2023-04-05T01:59:31;23.70;39.90
21425;DHT22;10873;51.132;16.848;2023-04-05T02:01:58;23.70;39.90
21425;DHT22;10873;51.132;16.848;2023-04-05T02:04:24;23.70;39.80
21425;DHT22;10873;51.132;16.848;2023-04-05T02:06:50;23.70;39.80
21425;DHT22;10873;51.132;16.848;2023-04-05T02:09:16;23.70;39.80
21425;DHT22;10873;51.132;16.848;2023-04-05T02:11:42;23.70;39.80
21425;DHT22;10873;51.132;16.848;2023-04-05T02:14:08;23.70;39.90
21425;DHT22;10873;51.132;16.848;2023-04-05T02:16:35;23.70;39.90
21425;DHT22;10873;51.132;16.848;2023-04-05T02:19:02;23.70;39.90
21425;DHT22;10873;51.132;16.848;2023-04-05T02:21:28;23.60;39.90
21425;DHT22;10873;51.132;16.848;2023-04-05T02:23:56;23.70;39.90
21425;DHT22;10873;51.132;16.848;2023-04-05T02:26:22;23.60;39.80
21425;DHT22;10873;51.132;16.848;2023-04-05T02:28:48;23.60;39.80
21425;DHT22;10873;51.132;16.848;2023-04-05T02:31:14;23.60;39.80
21425;DHT22;10873;51.132;16.848;2023-04-05T02:33:41;23.60;39.80
21425;DHT22;10873;51.132;16.848;2023-04-05T02:36:11;23.60;39.80
21425;DHT22;10873;51.132;16.848;2023-04-05T02:38:38;23.60;39.80
21425;DHT22;10873;51.132;16.848;2023-04-05T02:41:07;23.60;39.80
21425;DHT22;10873;51.132;16.848;2023-04-05T02:43:36;23.60;39.80
21425;DHT22;10873;51.132;16.848;2023-04-05T02:46:05;23.60;39.80
21425;DHT22;10873;51.132;16.848;2023-04-05T02:48:32;23.60;39.90
21425;DHT22;10873;51.132;16.848;2023-04-05T02:50:58;23.60;39.90
21425;DHT22;10873;51.132;16.848;2023-04-05T02:53:25;23.60;39.90
21425;DHT22;10873;51.132;16.848;2023-04-05T02:55:51;23.60;39.80
21425;DHT22;10873;51.132;16.848;2023-04-05T02:58:18;23.60;39.80
21425;DHT22;10873;51.132;16.848;2023-04-05T03:00:45;23.60;39.80
21425;DHT22;10873;51.132;16.848;2023-04-05T03:03:16;23.70;39.80
21425;DHT22;10873;51.132;16.848;2023-04-05T03:05:42;23.70;39.80
21425;DHT22;10873;51.132;16.848;2023-04-05T03:08:09;23.70;39.80
21425;DHT22;10873;51.132;16.848;2023-04-05T03:10:44;23.70;39.80
21425;DHT22;10873;51.132;16.848;2023-04-05T03:13:11;23.70;39.80
21425;DHT22;10873;51.132;16.848;2023-04-05T03:15:37;23.60;39.80
21425;DHT22;10873;51.132;16.848;2023-04-05T03:18:03;23.60;39.90
21425;DHT22;10873;51.132;16.848;2023-04-05T03:20:29;23.60;39.90
21425;DHT22;10873;51.132;16.848;2023-04-05T03:22:55;23.60;40.00
21425;DHT22;10873;51.132;16.848;2023-04-05T03:25:22;23.60;40.00
21425;DHT22;10873;51.132;16.848;2023-04-05T03:27:50;23.60;40.00
21425;DHT22;10873;51.132;16.848;2023-04-05T03:30:17;23.60;40.00
21425;DHT22;10873;51.132;16.848;2023-04-05T03:32:43;23.70;40.00
21425;DHT22;10873;51.132;16.848;2023-04-05T03:35:09;23.70;40.00
21425;DHT22;10873;51.132;16.848;2023-04-05T03:37:35;23.70;40.00
21425;DHT22;10873;51.132;16.848;2023-04-05T03:40:01;23.70;40.00
21425;DHT22;10873;51.132;16.848;2023-04-05T03:42:30;23.70;40.00
21425;DHT22;10873;51.132;16.848;2023-04-05T03:44:57;23.60;40.30
21425;DHT22;10873;51.132;16.848;2023-04-05T03:47:24;23.60;40.60
21425;DHT22;10873;51.132;16.848;2023-04-05T03:49:51;23.60;40.80
21425;DHT22;10873;51.132;16.848;2023-04-05T03:52:17;23.60;40.90
21425;DHT22;10873;51.132;16.848;2023-04-05T03:54:43;23.60;41.00
21425;DHT22;10873;51.132;16.848;2023-04-05T03:57:09;23.60;41.00
21425;DHT22;10873;51.132;16.848;2023-04-05T03:59:35;23.60;41.10
21425;DHT22;10873;51.132;16.848;2023-04-05T04:02:03;23.60;41.20
21425;DHT22;10873;51.132;16.848;2023-04-05T04:04:29;23.60;41.20
21425;DHT22;10873;51.132;16.848;2023-04-05T04:06:55;23.50;41.20
21425;DHT22;10873;51.132;16.848;2023-04-05T04:09:21;23.50;41.30
21425;DHT22;10873;51.132;16.848;2023-04-05T04:11:49;23.60;41.30
21425;DHT22;10873;51.132;16.848;2023-04-05T04:14:14;23.60;41.40
21425;DHT22;10873;51.132;16.848;2023-04-05T04:16:41;23.60;41.40
21425;DHT22;10873;51.132;16.848;2023-04-05T04:19:08;23.60;42.00
21425;DHT22;10873;51.132;16.848;2023-04-05T04:21:34;23.60;41.20
21425;DHT22;10873;51.132;16.848;2023-04-05T04:24:00;23.60;41.20
21425;DHT22;10873;51.132;16.848;2023-04-05T04:26:26;23.60;41.20
21425;DHT22;10873;51.132;16.848;2023-04-05T04:28:53;23.60;41.20
21425;DHT22;10873;51.132;16.848;2023-04-05T04:31:20;23.60;41.30
21425;DHT22;10873;51.132;16.848;2023-04-05T04:33:48;23.60;41.50
21425;DHT22;10873;51.132;16.848;2023-04-05T04:36:16;23.60;42.30
21425;DHT22;10873;51.132;16.848;2023-04-05T04:38:42;23.60;41.90
21425;DHT22;10873;51.132;16.848;2023-04-05T04:41:09;23.60;42.30
21425;DHT22;10873;51.132;16.848;2023-04-05T04:43:35;23.60;43.90
21425;DHT22;10873;51.132;16.848;2023-04-05T04:46:07;23.60;43.90
21425;DHT22;10873;51.132;16.848;2023-04-05T04:48:36;23.60;43.80
21425;DHT22;10873;51.132;16.848;2023-04-05T04:51:02;23.60;43.80
21425;DHT22;10873;51.132;16.848;2023-04-05T04:53:30;23.60;43.70
21425;DHT22;10873;51.132;16.848;2023-04-05T04:55:56;23.60;43.70
21425;DHT22;10873;51.132;16.848;2023-04-05T04:58:22;23.60;43.60
21425;DHT22;10873;51.132;16.848;2023-04-05T05:00:48;23.60;43.00
21425;DHT22;10873;51.132;16.848;2023-04-05T05:03:18;23.60;42.80
21425;DHT22;10873;51.132;16.848;2023-04-05T05:05:45;23.60;43.00
21425;DHT22;10873;51.132;16.848;2023-04-05T05:08:11;23.60;43.00
21425;DHT22;10873;51.132;16.848;2023-04-05T05:10:39;23.60;43.10
21425;DHT22;10873;51.132;16.848;2023-04-05T05:13:05;23.60;43.10
21425;DHT22;10873;51.132;16.848;2023-04-05T05:15:31;23.60;43.10
21425;DHT22;10873;51.132;16.848;2023-04-05T05:17:57;23.60;42.90
21425;DHT22;10873;51.132;16.848;2023-04-05T05:20:24;23.60;42.90
21425;DHT22;10873;51.132;16.848;2023-04-05T05:22:53;23.60;42.80
21425;DHT22;10873;51.132;16.848;2023-04-05T05:25:19;23.60;42.80
21425;DHT22;10873;51.132;16.848;2023-04-05T05:27:49;23.60;43.40
21425;DHT22;10873;51.132;16.848;2023-04-05T05:30:16;23.60;42.60
21425;DHT22;10873;51.132;16.848;2023-04-05T05:32:41;23.70;42.70
21425;DHT22;10873;51.132;16.848;2023-04-05T05:35:08;23.70;42.70
21425;DHT22;10873;51.132;16.848;2023-04-05T05:37:34;23.60;42.70
21425;DHT22;10873;51.132;16.848;2023-04-05T05:40:01;23.60;42.70
21425;DHT22;10873;51.132;16.848;2023-04-05T05:42:29;23.60;42.70
21425;DHT22;10873;51.132;16.848;2023-04-05T05:45:01;23.60;42.80
21425;DHT22;10873;51.132;16.848;2023-04-05T05:47:27;23.60;42.90
21425;DHT22;10873;51.132;16.848;2023-04-05T05:49:53;23.60;43.00
21425;DHT22;10873;51.132;16.848;2023-04-05T05:52:19;23.60;43.00
21425;DHT22;10873;51.132;16.848;2023-04-05T05:54:46;23.60;43.00
21425;DHT22;10873;51.132;16.848;2023-04-05T05:57:12;23.60;43.00
21425;DHT22;10873;51.132;16.848;2023-04-05T05:59:38;23.60;43.00
21425;DHT22;10873;51.132;16.848;2023-04-05T06:02:05;23.60;43.00
21425;DHT22;10873;51.132;16.848;2023-04-05T06:04:32;23.60;43.00
21425;DHT22;10873;51.132;16.848;2023-04-05T06:06:58;23.50;42.90
21425;DHT22;10873;51.132;16.848;2023-04-05T06:09:25;23.50;42.90
21425;DHT22;10873;51.132;16.848;2023-04-05T06:11:51;23.50;42.90
21425;DHT22;10873;51.132;16.848;2023-04-05T06:14:17;23.50;42.90
21425;DHT22;10873;51.132;16.848;2023-04-05T06:16:44;23.50;42.90
21425;DHT22;10873;51.132;16.848;2023-04-05T06:19:11;23.50;42.90
21425;DHT22;10873;51.132;16.848;2023-04-05T06:21:37;23.50;42.90
21425;DHT22;10873;51.132;16.848;2023-04-05T06:24:04;23.50;42.90
21425;DHT22;10873;51.132;16.848;2023-04-05T06:26:30;23.50;42.80
21425;DHT22;10873;51.132;16.848;2023-04-05T06:28:56;23.50;42.80
21425;DHT22;10873;51.132;16.848;2023-04-05T06:31:26;23.50;42.80
21425;DHT22;10873;51.132;16.848;2023-04-05T06:33:52;23.50;42.80
21425;DHT22;10873;51.132;16.848;2023-04-05T06:36:19;23.50;42.80
21425;DHT22;10873;51.132;16.848;2023-04-05T06:38:45;23.50;42.80
21425;DHT22;10873;51.132;16.848;2023-04-05T06:41:11;23.50;42.80
21425;DHT22;10873;51.132;16.848;2023-04-05T06:43:38;23.50;42.80
21425;DHT22;10873;51.132;16.848;2023-04-05T06:46:04;23.50;42.90
21425;DHT22;10873;51.132;16.848;2023-04-05T06:48:33;23.50;42.90
21425;DHT22;10873;51.132;16.848;2023-04-05T06:51:00;23.50;42.80
21425;DHT22;10873;51.132;16.848;2023-04-05T06:53:28;23.50;42.80
21425;DHT22;10873;51.132;16.848;2023-04-05T06:55:55;23.50;42.70
21425;DHT22;10873;51.132;16.848;2023-04-05T06:58:22;23.50;42.80
21425;DHT22;10873;51.132;16.848;2023-04-05T07:00:48;23.50;42.70
21425;DHT22;10873;51.132;16.848;2023-04-05T07:03:14;23.50;42.70
21425;DHT22;10873;51.132;16.848;2023-04-05T07:05:41;23.50;42.80
21425;DHT22;10873;51.132;16.848;2023-04-05T07:08:14;23.50;42.80
21425;DHT22;10873;51.132;16.848;2023-04-05T07:10:41;23.40;42.70
21425;DHT22;10873;51.132;16.848;2023-04-05T07:13:07;23.40;42.70
21425;DHT22;10873;51.132;16.848;2023-04-05T07:15:33;23.40;42.70
21425;DHT22;10873;51.132;16.848;2023-04-05T07:18:00;23.40;42.80
21425;DHT22;10873;51.132;16.848;2023-04-05T07:20:26;23.40;42.70
21425;DHT22;10873;51.132;16.848;2023-04-05T07:22:52;23.40;42.80
21425;DHT22;10873;51.132;16.848;2023-04-05T07:25:18;23.40;42.70
21425;DHT22;10873;51.132;16.848;2023-04-05T07:27:45;23.40;42.70
21425;DHT22;10873;51.132;16.848;2023-04-05T07:30:12;23.40;42.70
21425;DHT22;10873;51.132;16.848;2023-04-05T07:32:38;23.40;42.70
21425;DHT22;10873;51.132;16.848;2023-04-05T07:35:05;23.40;42.70
21425;DHT22;10873;51.132;16.848;2023-04-05T07:37:31;23.40;42.70
21425;DHT22;10873;51.132;16.848;2023-04-05T07:39:57;23.40;42.70
21425;DHT22;10873;51.132;16.848;2023-04-05T07:42:24;23.40;42.70
21425;DHT22;10873;51.132;16.848;2023-04-05T07:44:51;23.40;42.80
21425;DHT22;10873;51.132;16.848;2023-04-05T07:47:18;23.40;42.80
21425;DHT22;10873;51.132;16.848;2023-04-05T07:49:44;23.40;42.90
21425;DHT22;10873;51.132;16.848;2023-04-05T07:52:10;23.40;42.70
21425;DHT22;10873;51.132;16.848;2023-04-05T07:54:37;23.40;42.80
21425;DHT22;10873;51.132;16.848;2023-04-05T07:57:04;23.40;42.70
21425;DHT22;10873;51.132;16.848;2023-04-05T07:59:32;23.40;42.80
21425;DHT22;10873;51.132;16.848;2023-04-05T08:01:59;23.40;42.70
21425;DHT22;10873;51.132;16.848;2023-04-05T08:04:25;23.40;42.70
21425;DHT22;10873;51.132;16.848;2023-04-05T08:06:51;23.40;42.80
21425;DHT22;10873;51.132;16.848;2023-04-05T08:09:17;23.40;42.80
21425;DHT22;10873;51.132;16.848;2023-04-05T08:11:43;23.40;42.80
21425;DHT22;10873;51.132;16.848;2023-04-05T08:14:09;23.40;42.80
21425;DHT22;10873;51.132;16.848;2023-04-05T08:16:35;23.40;42.80
21425;DHT22;10873;51.132;16.848;2023-04-05T08:19:02;23.40;42.90
21425;DHT22;10873;51.132;16.848;2023-04-05T08:21:29;23.40;42.90
21425;DHT22;10873;51.132;16.848;2023-04-05T08:23:55;23.40;42.80
21425;DHT22;10873;51.132;16.848;2023-04-05T08:26:21;23.40;42.80
21425;DHT22;10873;51.132;16.848;2023-04-05T08:28:47;23.50;42.90
21425;DHT22;10873;51.132;16.848;2023-04-05T08:31:13;23.50;42.90
21425;DHT22;10873;51.132;16.848;2023-04-05T08:33:39;23.50;42.90
21425;DHT22;10873;51.132;16.848;2023-04-05T08:36:08;23.50;42.80
21425;DHT22;10873;51.132;16.848;2023-04-05T08:38:35;23.50;42.80
21425;DHT22;10873;51.132;16.848;2023-04-05T08:41:07;23.50;42.90
21425;DHT22;10873;51.132;16.848;2023-04-05T08:43:40;23.50;42.90
21425;DHT22;10873;51.132;16.848;2023-04-05T08:46:13;23.50;42.90
21425;DHT22;10873;51.132;16.848;2023-04-05T08:48:39;23.50;42.90
21425;DHT22;10873;51.132;16.848;2023-04-05T08:51:08;23.50;42.90
21425;DHT22;10873;51.132;16.848;2023-04-05T08:53:34;23.50;42.90
21425;DHT22;10873;51.132;16.848;2023-04-05T08:56:01;23.50;43.00
21425;DHT22;10873;51.132;16.848;2023-04-05T08:58:28;23.50;43.10
21425;DHT22;10873;51.132;16.848;2023-04-05T09:00:56;23.50;43.00
21425;DHT22;10873;51.132;16.848;2023-04-05T09:03:25;23.50;43.00
21425;DHT22;10873;51.132;16.848;2023-04-05T09:05:53;23.60;43.10
21425;DHT22;10873;51.132;16.848;2023-04-05T09:08:21;23.60;43.10
21425;DHT22;10873;51.132;16.848;2023-04-05T09:10:48;23.60;43.10
21425;DHT22;10873;51.132;16.848;2023-04-05T09:13:14;23.60;43.00
21425;DHT22;10873;51.132;16.848;2023-04-05T09:15:40;23.60;43.00
21425;DHT22;10873;51.132;16.848;2023-04-05T09:18:06;23.60;43.00
21425;DHT22;10873;51.132;16.848;2023-04-05T09:20:32;23.60;43.00
21425;DHT22;10873;51.132;16.848;2023-04-05T09:22:59;23.60;43.00
21425;DHT22;10873;51.132;16.848;2023-04-05T09:25:37;23.60;42.80
21425;DHT22;10873;51.132;16.848;2023-04-05T09:28:04;23.60;42.80
21425;DHT22;10873;51.132;16.848;2023-04-05T09:30:31;23.60;42.80
21425;DHT22;10873;51.132;16.848;2023-04-05T09:32:57;23.60;42.80
21425;DHT22;10873;51.132;16.848;2023-04-05T09:35:25;23.70;42.80
21425;DHT22;10873;51.132;16.848;2023-04-05T09:37:53;23.60;42.70
21425;DHT22;10873;51.132;16.848;2023-04-05T09:40:20;23.60;42.80
21425;DHT22;10873;51.132;16.848;2023-04-05T09:42:48;23.60;42.80
21425;DHT22;10873;51.132;16.848;2023-04-05T09:45:15;23.60;42.70
21425;DHT22;10873;51.132;16.848;2023-04-05T09:47:53;23.60;42.70
21425;DHT22;10873;51.132;16.848;2023-04-05T09:50:19;23.60;42.80
21425;DHT22;10873;51.132;16.848;2023-04-05T09:52:46;23.60;42.80
21425;DHT22;10873;51.132;16.848;2023-04-05T09:55:13;23.60;42.80
21425;DHT22;10873;51.132;16.848;2023-04-05T09:57:40;23.60;42.80
21425;DHT22;10873;51.132;16.848;2023-04-05T10:00:17;23.60;42.80
21425;DHT22;10873;51.132;16.848;2023-04-05T10:02:51;23.60;42.80
21425;DHT22;10873;51.132;16.848;2023-04-05T10:05:18;23.60;42.80
21425;DHT22;10873;51.132;16.848;2023-04-05T10:07:44;23.60;42.90
21425;DHT22;10873;51.132;16.848;2023-04-05T10:10:11;23.70;42.90
21425;DHT22;10873;51.132;16.848;2023-04-05T10:12:38;23.70;42.80
21425;DHT22;10873;51.132;16.848;2023-04-05T10:15:08;23.70;42.80
21425;DHT22;10873;51.132;16.848;2023-04-05T10:17:38;23.70;42.80
21425;DHT22;10873;51.132;16.848;2023-04-05T10:20:12;23.70;42.80
21425;DHT22;10873;51.132;16.848;2023-04-05T10:22:43;23.70;42.80
21425;DHT22;10873;51.132;16.848;2023-04-05T10:25:23;23.70;42.80
21425;DHT22;10873;51.132;16.848;2023-04-05T10:27:53;23.70;42.80
21425;DHT22;10873;51.132;16.848;2023-04-05T10:30:23;23.70;42.80
21425;DHT22;10873;51.132;16.848;2023-04-05T10:33:00;23.70;42.80
21425;DHT22;10873;51.132;16.848;2023-04-05T10:35:34;23.70;42.80
21425;DHT22;10873;51.132;16.848;2023-04-05T10:38:12;23.70;42.80
21425;DHT22;10873;51.132;16.848;2023-04-05T10:40:44;23.70;42.80
21425;DHT22;10873;51.132;16.848;2023-04-05T10:43:15;23.70;42.80
21425;DHT22;10873;51.132;16.848;2023-04-05T10:45:46;23.70;42.80
21425;DHT22;10873;51.132;16.848;2023-04-05T10:48:22;23.70;42.90
21425;DHT22;10873;51.132;16.848;2023-04-05T10:50:50;23.70;42.90
21425;DHT22;10873;51.132;16.848;2023-04-05T10:53:16;23.70;42.90
21425;DHT22;10873;51.132;16.848;2023-04-05T10:55:43;23.70;43.00
21425;DHT22;10873;51.132;16.848;2023-04-05T10:58:12;23.70;42.90
21425;DHT22;10873;51.132;16.848;2023-04-05T11:00:39;23.70;42.90
21425;DHT22;10873;51.132;16.848;2023-04-05T11:03:07;23.70;42.90
21425;DHT22;10873;51.132;16.848;2023-04-05T11:05:34;23.70;42.90
21425;DHT22;10873;51.132;16.848;2023-04-05T11:08:03;23.70;43.00
21425;DHT22;10873;51.132;16.848;2023-04-05T11:10:32;23.70;43.00
21425;DHT22;10873;51.132;16.848;2023-04-05T11:13:06;23.80;43.00
21425;DHT22;10873;51.132;16.848;2023-04-05T11:15:33;23.80;42.90
21425;DHT22;10873;51.132;16.848;2023-04-05T11:18:11;23.80;42.90
21425;DHT22;10873;51.132;16.848;2023-04-05T11:20:48;23.80;43.00
21425;DHT22;10873;51.132;16.848;2023-04-05T11:23:17;23.80;43.00
21425;DHT22;10873;51.132;16.848;2023-04-05T11:25:50;23.80;43.10
21425;DHT22;10873;51.132;16.848;2023-04-05T11:28:25;23.80;43.20
21425;DHT22;10873;51.132;16.848;2023-04-05T11:30:53;23.80;43.30
21425;DHT22;10873;51.132;16.848;2023-04-05T11:33:54;23.80;43.50
21425;DHT22;10873;51.132;16.848;2023-04-05T11:36:41;23.80;43.50
21425;DHT22;10873;51.132;16.848;2023-04-05T11:39:26;23.90;43.50
21425;DHT22;10873;51.132;16.848;2023-04-05T11:42:03;23.90;43.50
21425;DHT22;10873;51.132;16.848;2023-04-05T11:44:38;23.80;43.60
21425;DHT22;10873;51.132;16.848;2023-04-05T11:47:05;23.90;43.60
21425;DHT22;10873;51.132;16.848;2023-04-05T11:49:33;23.90;43.60
21425;DHT22;10873;51.132;16.848;2023-04-05T11:52:09;23.80;43.60
21425;DHT22;10873;51.132;16.848;2023-04-05T11:54:36;23.80;43.60
21425;DHT22;10873;51.132;16.848;2023-04-05T11:57:02;23.80;43.60
21425;DHT22;10873;51.132;16.848;2023-04-05T11:59:30;23.80;43.60
21425;DHT22;10873;51.132;16.848;2023-04-05T12:02:00;23.80;43.60
21425;DHT22;10873;51.132;16.848;2023-04-05T12:04:26;23.80;43.70
21425;DHT22;10873;51.132;16.848;2023-04-05T12:07:11;23.80;43.60
21425;DHT22;10873;51.132;16.848;2023-04-05T12:09:59;23.80;43.60
21425;DHT22;10873;51.132;16.848;2023-04-05T12:12:26;23.80;43.60
21425;DHT22;10873;51.132;16.848;2023-04-05T12:14:58;23.80;43.60
21425;DHT22;10873;51.132;16.848;2023-04-05T12:17:46;23.70;43.60
21425;DHT22;10873;51.132;16.848;2023-04-05T12:20:15;23.80;43.60
21425;DHT22;10873;51.132;16.848;2023-04-05T12:22:44;23.70;43.70
21425;DHT22;10873;51.132;16.848;2023-04-05T12:25:10;23.80;43.70
21425;DHT22;10873;51.132;16.848;2023-04-05T12:27:38;23.80;43.70
21425;DHT22;10873;51.132;16.848;2023-04-05T12:30:09;23.70;43.70
21425;DHT22;10873;51.132;16.848;2023-04-05T12:32:39;23.70;43.70
21425;DHT22;10873;51.132;16.848;2023-04-05T12:35:06;23.70;43.70
21425;DHT22;10873;51.132;16.848;2023-04-05T12:37:33;23.70;43.70
21425;DHT22;10873;51.132;16.848;2023-04-05T12:40:02;23.70;43.70
21425;DHT22;10873;51.132;16.848;2023-04-05T12:42:32;23.70;43.70
21425;DHT22;10873;51.132;16.848;2023-04-05T12:45:02;23.70;43.70
21425;DHT22;10873;51.132;16.848;2023-04-05T12:47:32;23.70;43.80
21425;DHT22;10873;51.132;16.848;2023-04-05T12:50:09;23.70;43.70
21425;DHT22;10873;51.132;16.848;2023-04-05T12:52:35;23.70;43.80
21425;DHT22;10873;51.132;16.848;2023-04-05T12:55:02;23.70;43.80
21425;DHT22;10873;51.132;16.848;2023-04-05T12:57:29;23.70;43.80
21425;DHT22;10873;51.132;16.848;2023-04-05T12:59:55;23.70;43.80
21425;DHT22;10873;51.132;16.848;2023-04-05T13:02:21;23.70;43.90
21425;DHT22;10873;51.132;16.848;2023-04-05T13:04:47;23.70;43.90
21425;DHT22;10873;51.132;16.848;2023-04-05T13:07:14;23.70;43.90
21425;DHT22;10873;51.132;16.848;2023-04-05T13:09:40;23.70;43.90
21425;DHT22;10873;51.132;16.848;2023-04-05T13:12:07;23.70;43.80
21425;DHT22;10873;51.132;16.848;2023-04-05T13:14:33;23.70;43.70
21425;DHT22;10873;51.132;16.848;2023-04-05T13:16:59;23.70;43.60
21425;DHT22;10873;51.132;16.848;2023-04-05T13:19:25;23.70;43.60
21425;DHT22;10873;51.132;16.848;2023-04-05T13:21:52;23.70;43.70
21425;DHT22;10873;51.132;16.848;2023-04-05T13:24:17;23.70;43.50
21425;DHT22;10873;51.132;16.848;2023-04-05T13:26:44;23.70;43.80
21425;DHT22;10873;51.132;16.848;2023-04-05T13:29:11;23.70;44.10
21425;DHT22;10873;51.132;16.848;2023-04-05T13:31:37;23.70;44.30
21425;DHT22;10873;51.132;16.848;2023-04-05T13:34:05;23.70;44.40
21425;DHT22;10873;51.132;16.848;2023-04-05T13:36:31;23.60;44.40
21425;DHT22;10873;51.132;16.848;2023-04-05T13:38:57;23.60;44.50
21425;DHT22;10873;51.132;16.848;2023-04-05T13:41:23;23.70;44.60
21425;DHT22;10873;51.132;16.848;2023-04-05T13:43:49;23.60;44.60
21425;DHT22;10873;51.132;16.848;2023-04-05T13:46:17;23.70;44.80
21425;DHT22;10873;51.132;16.848;2023-04-05T13:48:43;23.70;44.90
21425;DHT22;10873;51.132;16.848;2023-04-05T13:51:09;23.70;45.00
21425;DHT22;10873;51.132;16.848;2023-04-05T13:53:35;23.70;45.00
21425;DHT22;10873;51.132;16.848;2023-04-05T13:56:01;23.70;45.10
21425;DHT22;10873;51.132;16.848;2023-04-05T13:58:27;23.70;45.10
21425;DHT22;10873;51.132;16.848;2023-04-05T14:00:53;23.70;45.20
21425;DHT22;10873;51.132;16.848;2023-04-05T14:03:20;23.70;45.20
21425;DHT22;10873;51.132;16.848;2023-04-05T14:05:47;23.70;45.20
21425;DHT22;10873;51.132;16.848;2023-04-05T14:08:12;23.70;45.30
21425;DHT22;10873;51.132;16.848;2023-04-05T14:10:38;23.70;45.40
21425;DHT22;10873;51.132;16.848;2023-04-05T14:13:04;23.80;45.50
21425;DHT22;10873;51.132;16.848;2023-04-05T14:15:31;23.70;45.50
21425;DHT22;10873;51.132;16.848;2023-04-05T14:17:57;23.80;45.40
21425;DHT22;10873;51.132;16.848;2023-04-05T14:20:24;23.80;45.50
21425;DHT22;10873;51.132;16.848;2023-04-05T14:22:50;23.80;45.60
21425;DHT22;10873;51.132;16.848;2023-04-05T14:25:16;23.80;45.70
21425;DHT22;10873;51.132;16.848;2023-04-05T14:27:42;23.80;45.80
21425;DHT22;10873;51.132;16.848;2023-04-05T14:30:09;23.80;45.80
21425;DHT22;10873;51.132;16.848;2023-04-05T14:32:36;23.80;45.80
21425;DHT22;10873;51.132;16.848;2023-04-05T14:35:02;23.80;45.80
21425;DHT22;10873;51.132;16.848;2023-04-05T14:37:29;23.80;45.80
21425;DHT22;10873;51.132;16.848;2023-04-05T14:39:55;23.80;45.80
21425;DHT22;10873;51.132;16.848;2023-04-05T14:42:21;23.80;45.90
21425;DHT22;10873;51.132;16.848;2023-04-05T14:44:48;23.80;45.90
21425;DHT22;10873;51.132;16.848;2023-04-05T14:47:14;23.80;45.90
21425;DHT22;10873;51.132;16.848;2023-04-05T14:49:40;23.80;45.90
21425;DHT22;10873;51.132;16.848;2023-04-05T14:52:06;23.80;45.90
21425;DHT22;10873;51.132;16.848;2023-04-05T14:54:33;23.80;45.90
21425;DHT22;10873;51.132;16.848;2023-04-05T14:56:59;23.80;45.90
21425;DHT22;10873;51.132;16.848;2023-04-05T14:59:25;23.90;46.00
21425;DHT22;10873;51.132;16.848;2023-04-05T15:01:51;23.90;46.00
21425;DHT22;10873;51.132;16.848;2023-04-05T15:04:18;23.90;46.00
21425;DHT22;10873;51.132;16.848;2023-04-05T15:06:43;23.90;46.00
21425;DHT22;10873;51.132;16.848;2023-04-05T15:09:10;23.90;46.00
21425;DHT22;10873;51.132;16.848;2023-04-05T15:11:37;23.90;46.10
21425;DHT22;10873;51.132;16.848;2023-04-05T15:14:05;23.90;46.10
21425;DHT22;10873;51.132;16.848;2023-04-05T15:16:31;23.90;46.10
21425;DHT22;10873;51.132;16.848;2023-04-05T15:18:57;23.90;46.10
21425;DHT22;10873;51.132;16.848;2023-04-05T15:21:26;24.00;46.10
21425;DHT22;10873;51.132;16.848;2023-04-05T15:23:52;24.00;46.00